THA462 YMML-VTBS
Flight info
| Callsign | THA462 |
|---|---|
| Flight time | N/A |
| Altitude | 38000 |
| Route | KEPPA Q168 WR T29 CIN A576 ATMAP/N0486F400 M635 BLI G464 PNK N875 ENREP M904 TONIK M644 ALUMO Y12 ALEMI TUMGA1C |
| Aircraft | A359/H-SDE2E3GHIJ3J4J5LM1ORWXY/LB1D1 |
Departure
| Time | N/A |
|---|---|
| Airport | Melbourne Airport (YMML) |
Arrival
| Time | 2026-04-30 07:30 |
|---|---|
| Airport | Suvarnabhumi Airport (VTBS) |
| Time | Latitude | Longitude | Altitude | Speed | Heading |
|---|---|---|---|---|---|
| 2026-04-30 06:16 | 6.21933 | 103.29625 | 36884 ft | 491 kts | 326° |
| 2026-04-30 06:16 | 6.27540 | 103.25670 | 36884 ft | 492 kts | 326° |
| 2026-04-30 06:17 | 6.33154 | 103.21709 | 37211 ft | 490 kts | 325° |
| 2026-04-30 06:17 | 6.34998 | 103.20408 | 37535 ft | 487 kts | 325° |
| 2026-04-30 06:17 | 6.38679 | 103.17810 | 37825 ft | 488 kts | 324° |
| 2026-04-30 06:17 | 6.41456 | 103.15850 | 38123 ft | 487 kts | 324° |
| 2026-04-30 06:18 | 6.44225 | 103.13895 | 38358 ft | 487 kts | 324° |
| 2026-04-30 06:18 | 6.47014 | 103.11926 | 38474 ft | 490 kts | 324° |
| 2026-04-30 06:18 | 6.48864 | 103.10620 | 38567 ft | 491 kts | 324° |
| 2026-04-30 06:18 | 6.51654 | 103.08650 | 38757 ft | 491 kts | 324° |
| 2026-04-30 06:19 | 6.54451 | 103.06675 | 38928 ft | 491 kts | 324° |
| 2026-04-30 06:19 | 6.57245 | 103.04702 | 39125 ft | 490 kts | 324° |
| 2026-04-30 06:19 | 6.60040 | 103.02727 | 39323 ft | 490 kts | 324° |
| 2026-04-30 06:19 | 6.62833 | 103.00760 | 39500 ft | 490 kts | 324° |
| 2026-04-30 06:20 | 6.65624 | 102.98792 | 39668 ft | 490 kts | 324° |
| 2026-04-30 06:20 | 6.68421 | 102.96817 | 39830 ft | 490 kts | 324° |
| 2026-04-30 06:20 | 6.71174 | 102.94872 | 39876 ft | 487 kts | 324° |
| 2026-04-30 06:21 | 6.76710 | 102.90961 | 39881 ft | 485 kts | 324° |
| 2026-04-30 06:21 | 6.82233 | 102.87061 | 39881 ft | 485 kts | 324° |
| 2026-04-30 06:22 | 6.87937 | 102.83444 | 39882 ft | 485 kts | 334° |
| 2026-04-30 06:22 | 6.94219 | 102.80944 | 39883 ft | 485 kts | 340° |
| 2026-04-30 06:23 | 7.00572 | 102.78719 | 39883 ft | 486 kts | 340° |
| 2026-04-30 06:23 | 7.06970 | 102.76524 | 39888 ft | 485 kts | 340° |
| 2026-04-30 06:24 | 7.13355 | 102.74316 | 39879 ft | 485 kts | 340° |
| 2026-04-30 06:24 | 7.19750 | 102.72088 | 39881 ft | 485 kts | 340° |
| 2026-04-30 06:25 | 7.26125 | 102.69860 | 39880 ft | 485 kts | 340° |
| 2026-04-30 06:25 | 7.32514 | 102.67628 | 39880 ft | 485 kts | 340° |
| 2026-04-30 06:26 | 7.38861 | 102.65410 | 39881 ft | 485 kts | 340° |
| 2026-04-30 06:26 | 7.45243 | 102.63180 | 39880 ft | 485 kts | 340° |
| 2026-04-30 06:27 | 7.51618 | 102.60952 | 39880 ft | 484 kts | 340° |
| 2026-04-30 06:27 | 7.57978 | 102.58728 | 39882 ft | 484 kts | 340° |
| 2026-04-30 06:28 | 7.64307 | 102.56514 | 39878 ft | 484 kts | 340° |
| 2026-04-30 06:28 | 7.70677 | 102.54285 | 39877 ft | 484 kts | 340° |
| 2026-04-30 06:29 | 7.77059 | 102.52051 | 39878 ft | 484 kts | 340° |
| 2026-04-30 06:29 | 7.83414 | 102.49826 | 39877 ft | 484 kts | 340° |
| 2026-04-30 06:30 | 7.89747 | 102.47608 | 39877 ft | 484 kts | 340° |
| 2026-04-30 06:30 | 7.96114 | 102.45378 | 39878 ft | 484 kts | 340° |
| 2026-04-30 06:31 | 8.02482 | 102.43146 | 39882 ft | 484 kts | 340° |
| 2026-04-30 06:31 | 8.08809 | 102.40928 | 39880 ft | 484 kts | 340° |
| 2026-04-30 06:32 | 8.15187 | 102.38691 | 39881 ft | 485 kts | 340° |
| 2026-04-30 06:32 | 8.21577 | 102.36450 | 39881 ft | 485 kts | 340° |
| 2026-04-30 06:33 | 8.27924 | 102.34223 | 39878 ft | 485 kts | 340° |
| 2026-04-30 06:33 | 8.34299 | 102.31984 | 39878 ft | 485 kts | 340° |
| 2026-04-30 06:34 | 8.40673 | 102.29746 | 39879 ft | 485 kts | 340° |
| 2026-04-30 06:34 | 8.47045 | 102.27508 | 39879 ft | 485 kts | 340° |
| 2026-04-30 06:35 | 8.53419 | 102.25268 | 39883 ft | 485 kts | 339° |
| 2026-04-30 06:35 | 8.59739 | 102.23046 | 39878 ft | 484 kts | 339° |
| 2026-04-30 06:36 | 8.66102 | 102.20809 | 39876 ft | 483 kts | 339° |
| 2026-04-30 06:36 | 8.72471 | 102.18568 | 39880 ft | 483 kts | 339° |
| 2026-04-30 06:37 | 8.78794 | 102.16343 | 39878 ft | 483 kts | 339° |
| 2026-04-30 06:37 | 8.85143 | 102.14108 | 39878 ft | 483 kts | 339° |
| 2026-04-30 06:38 | 8.91495 | 102.11871 | 39882 ft | 483 kts | 339° |
| 2026-04-30 06:38 | 8.97852 | 102.09631 | 39880 ft | 483 kts | 339° |
| 2026-04-30 06:39 | 9.04210 | 102.07390 | 39881 ft | 484 kts | 339° |
| 2026-04-30 06:39 | 9.10571 | 102.05148 | 39881 ft | 484 kts | 339° |
| 2026-04-30 06:40 | 9.16882 | 102.02922 | 39882 ft | 483 kts | 339° |
| 2026-04-30 06:40 | 9.23230 | 102.00683 | 39882 ft | 483 kts | 339° |
| 2026-04-30 06:41 | 9.29676 | 101.98711 | 39882 ft | 485 kts | 348° |
| 2026-04-30 06:41 | 9.36383 | 101.97866 | 39881 ft | 487 kts | 352° |
| 2026-04-30 06:42 | 9.43102 | 101.97272 | 39882 ft | 487 kts | 353° |
| 2026-04-30 06:42 | 9.49856 | 101.96715 | 39880 ft | 487 kts | 353° |
| 2026-04-30 06:43 | 9.56610 | 101.96143 | 39880 ft | 487 kts | 353° |
| 2026-04-30 06:43 | 9.63359 | 101.95557 | 39883 ft | 487 kts | 353° |
| 2026-04-30 06:44 | 9.70121 | 101.94965 | 39879 ft | 487 kts | 353° |
| 2026-04-30 06:44 | 9.76886 | 101.94372 | 39877 ft | 487 kts | 353° |
| 2026-04-30 06:45 | 9.83600 | 101.93785 | 39878 ft | 487 kts | 353° |
| 2026-04-30 06:45 | 9.90368 | 101.93193 | 39877 ft | 487 kts | 353° |
| 2026-04-30 06:46 | 9.97134 | 101.92601 | 39874 ft | 487 kts | 353° |
| 2026-04-30 06:46 | 10.03899 | 101.92009 | 39876 ft | 488 kts | 353° |
| 2026-04-30 06:47 | 10.10670 | 101.91416 | 39876 ft | 488 kts | 353° |
| 2026-04-30 06:47 | 10.17404 | 101.90825 | 39877 ft | 488 kts | 353° |
| 2026-04-30 06:48 | 10.24176 | 101.90232 | 39875 ft | 488 kts | 353° |
| 2026-04-30 06:48 | 10.30956 | 101.89637 | 39871 ft | 488 kts | 353° |
| 2026-04-30 06:49 | 10.37727 | 101.89043 | 39873 ft | 488 kts | 353° |
| 2026-04-30 06:49 | 10.44468 | 101.88452 | 39873 ft | 488 kts | 353° |
| 2026-04-30 06:50 | 10.51240 | 101.87857 | 39872 ft | 488 kts | 353° |
| 2026-04-30 06:50 | 10.58013 | 101.87262 | 39873 ft | 488 kts | 353° |
| 2026-04-30 06:51 | 10.64740 | 101.86671 | 39874 ft | 488 kts | 353° |
| 2026-04-30 06:51 | 10.71509 | 101.86076 | 39876 ft | 488 kts | 353° |
| 2026-04-30 06:52 | 10.78232 | 101.85179 | 39871 ft | 486 kts | 346° |
| 2026-04-30 06:52 | 10.84838 | 101.83722 | 39871 ft | 486 kts | 346° |
| 2026-04-30 06:53 | 10.91442 | 101.82224 | 39872 ft | 486 kts | 346° |
| 2026-04-30 06:53 | 10.97996 | 101.80730 | 39877 ft | 486 kts | 346° |
| 2026-04-30 06:54 | 11.04600 | 101.79221 | 39875 ft | 486 kts | 346° |
| 2026-04-30 06:54 | 11.11207 | 101.77711 | 39874 ft | 485 kts | 346° |
| 2026-04-30 06:55 | 11.17758 | 101.76213 | 39878 ft | 485 kts | 346° |
| 2026-04-30 06:55 | 11.24339 | 101.74707 | 39877 ft | 484 kts | 346° |
| 2026-04-30 06:56 | 11.30923 | 101.73199 | 39875 ft | 484 kts | 346° |
| 2026-04-30 06:56 | 11.37504 | 101.71692 | 39876 ft | 485 kts | 346° |
| 2026-04-30 06:57 | 11.44089 | 101.70183 | 39877 ft | 485 kts | 346° |
| 2026-04-30 06:57 | 11.50631 | 101.68683 | 39877 ft | 485 kts | 346° |
| 2026-04-30 06:58 | 11.57214 | 101.67173 | 39877 ft | 485 kts | 346° |
| 2026-04-30 06:58 | 11.63802 | 101.65661 | 39875 ft | 486 kts | 346° |
| 2026-04-30 06:59 | 11.70402 | 101.64146 | 39877 ft | 486 kts | 346° |
| 2026-04-30 06:59 | 11.77008 | 101.62628 | 39879 ft | 486 kts | 346° |
| 2026-04-30 07:00 | 11.77995 | 101.62402 | 39874 ft | 486 kts | 346° |
| 2026-04-30 07:00 | 11.80322 | 101.61867 | 39879 ft | 486 kts | 345° |
| 2026-04-30 07:01 | 11.86910 | 101.60352 | 39876 ft | 485 kts | 345° |
| 2026-04-30 07:01 | 11.93487 | 101.58840 | 39880 ft | 484 kts | 345° |
| 2026-04-30 07:02 | 12.00073 | 101.57324 | 39876 ft | 484 kts | 345° |
| 2026-04-30 07:02 | 12.06606 | 101.55820 | 39879 ft | 484 kts | 345° |
| 2026-04-30 07:03 | 12.13186 | 101.54304 | 39791 ft | 483 kts | 345° |
| 2026-04-30 07:03 | 12.16468 | 101.53548 | 39565 ft | 483 kts | 345° |
| 2026-04-30 07:03 | 12.19747 | 101.52792 | 39330 ft | 483 kts | 345° |
| 2026-04-30 07:03 | 12.23029 | 101.52036 | 39105 ft | 483 kts | 345° |
| 2026-04-30 07:04 | 12.26313 | 101.51279 | 38886 ft | 483 kts | 345° |
| 2026-04-30 07:04 | 12.29585 | 101.50524 | 38650 ft | 483 kts | 345° |
| 2026-04-30 07:04 | 12.32867 | 101.49767 | 38400 ft | 483 kts | 345° |
| 2026-04-30 07:04 | 12.36101 | 101.49020 | 38130 ft | 482 kts | 345° |
| 2026-04-30 07:05 | 12.41736 | 101.47720 | 37138 ft | 477 kts | 345° |
| 2026-04-30 07:05 | 12.44973 | 101.46973 | 36484 ft | 476 kts | 345° |
| 2026-04-30 07:05 | 12.48217 | 101.46223 | 35809 ft | 476 kts | 345° |
| 2026-04-30 07:06 | 12.51459 | 101.45474 | 35109 ft | 477 kts | 345° |
| 2026-04-30 07:06 | 12.54705 | 101.44723 | 34387 ft | 478 kts | 345° |
| 2026-04-30 07:06 | 12.57928 | 101.43978 | 33546 ft | 481 kts | 345° |
| 2026-04-30 07:06 | 12.61200 | 101.43221 | 32678 ft | 483 kts | 345° |
| 2026-04-30 07:07 | 12.64456 | 101.42324 | 31664 ft | 487 kts | 341° |
| 2026-04-30 07:07 | 12.67697 | 101.41275 | 30727 ft | 490 kts | 341° |
| 2026-04-30 07:07 | 12.70963 | 101.40217 | 29771 ft | 494 kts | 341° |
| 2026-04-30 07:07 | 12.74255 | 101.39169 | 28938 ft | 493 kts | 341° |
| 2026-04-30 07:08 | 12.77518 | 101.38142 | 28239 ft | 489 kts | 342° |
| 2026-04-30 07:08 | 12.80769 | 101.37124 | 27572 ft | 485 kts | 342° |
| 2026-04-30 07:08 | 12.83984 | 101.36121 | 26902 ft | 481 kts | 342° |
| 2026-04-30 07:08 | 12.87171 | 101.35129 | 26236 ft | 477 kts | 342° |
| 2026-04-30 07:09 | 12.90339 | 101.34144 | 25586 ft | 474 kts | 342° |
| 2026-04-30 07:09 | 12.93489 | 101.33164 | 24917 ft | 472 kts | 342° |
| 2026-04-30 07:09 | 12.96585 | 101.32201 | 24270 ft | 470 kts | 342° |
| 2026-04-30 07:09 | 12.99702 | 101.31231 | 23620 ft | 468 kts | 342° |
| 2026-04-30 07:10 | 13.02811 | 101.30264 | 22890 ft | 465 kts | 342° |
| 2026-04-30 07:10 | 13.05892 | 101.29306 | 22202 ft | 460 kts | 342° |
| 2026-04-30 07:10 | 13.08952 | 101.28354 | 21567 ft | 456 kts | 342° |
| 2026-04-30 07:10 | 13.10990 | 101.27720 | 21127 ft | 453 kts | 342° |
| 2026-04-30 07:11 | 13.13960 | 101.26796 | 20487 ft | 449 kts | 342° |
| 2026-04-30 07:11 | 13.16940 | 101.25868 | 19843 ft | 446 kts | 342° |
| 2026-04-30 07:11 | 13.19883 | 101.24951 | 19462 ft | 435 kts | 342° |
| 2026-04-30 07:11 | 13.22726 | 101.24066 | 19346 ft | 418 kts | 342° |
| 2026-04-30 07:12 | 13.25464 | 101.23214 | 19196 ft | 403 kts | 342° |
| 2026-04-30 07:12 | 13.28101 | 101.22392 | 19052 ft | 391 kts | 342° |
| 2026-04-30 07:12 | 13.30720 | 101.21572 | 18867 ft | 395 kts | 341° |
| 2026-04-30 07:12 | 13.33242 | 101.20453 | 18456 ft | 393 kts | 327° |
| 2026-04-30 07:13 | 13.35230 | 101.18616 | 17841 ft | 389 kts | 306° |
| 2026-04-30 07:13 | 13.36429 | 101.16170 | 17402 ft | 381 kts | 285° |
| 2026-04-30 07:13 | 13.37002 | 101.13524 | 17043 ft | 379 kts | 279° |
| 2026-04-30 07:13 | 13.37484 | 101.10874 | 16695 ft | 377 kts | 279° |
| 2026-04-30 07:14 | 13.37986 | 101.08229 | 16356 ft | 376 kts | 280° |
| 2026-04-30 07:14 | 13.38507 | 101.05599 | 16009 ft | 374 kts | 281° |
| 2026-04-30 07:14 | 13.39039 | 101.02980 | 15668 ft | 373 kts | 281° |
| 2026-04-30 07:14 | 13.39575 | 101.00382 | 15331 ft | 371 kts | 281° |
| 2026-04-30 07:15 | 13.40113 | 100.97792 | 14994 ft | 369 kts | 281° |
| 2026-04-30 07:15 | 13.40648 | 100.95222 | 14663 ft | 367 kts | 281° |
| 2026-04-30 07:15 | 13.41192 | 100.92669 | 14317 ft | 365 kts | 282° |
| 2026-04-30 07:15 | 13.42118 | 100.90246 | 13986 ft | 366 kts | 300° |
| 2026-04-30 07:16 | 13.43808 | 100.88348 | 13657 ft | 367 kts | 322° |
| 2026-04-30 07:16 | 13.45923 | 100.86877 | 13326 ft | 366 kts | 327° |
| 2026-04-30 07:16 | 13.48088 | 100.85489 | 13098 ft | 366 kts | 327° |
| 2026-04-30 07:16 | 13.50249 | 100.84100 | 12840 ft | 365 kts | 326° |
| 2026-04-30 07:17 | 13.52397 | 100.82708 | 12591 ft | 364 kts | 326° |
| 2026-04-30 07:17 | 13.54656 | 100.81533 | 12313 ft | 364 kts | 342° |
| 2026-04-30 07:17 | 13.59547 | 100.81815 | 11330 ft | 352 kts | 17° |
| 2026-04-30 07:18 | 13.61817 | 100.82543 | 10982 ft | 331 kts | 18° |
| 2026-04-30 07:18 | 13.63967 | 100.83216 | 10471 ft | 318 kts | 17° |
| 2026-04-30 07:18 | 13.66085 | 100.83846 | 10124 ft | 313 kts | 16° |
| 2026-04-30 07:18 | 13.68157 | 100.84439 | 9863 ft | 306 kts | 16° |
| 2026-04-30 07:19 | 13.70206 | 100.85015 | 9442 ft | 305 kts | 16° |
| 2026-04-30 07:19 | 13.72246 | 100.85582 | 9016 ft | 303 kts | 15° |
| 2026-04-30 07:19 | 13.74270 | 100.86141 | 8632 ft | 300 kts | 15° |
| 2026-04-30 07:19 | 13.76270 | 100.86692 | 8257 ft | 296 kts | 16° |
| 2026-04-30 07:20 | 13.78239 | 100.87232 | 7844 ft | 296 kts | 16° |
| 2026-04-30 07:20 | 13.80230 | 100.87779 | 7491 ft | 295 kts | 16° |
| 2026-04-30 07:20 | 13.82198 | 100.88319 | 7171 ft | 291 kts | 16° |
| 2026-04-30 07:20 | 13.84130 | 100.88852 | 6965 ft | 282 kts | 17° |
| 2026-04-30 07:21 | 13.85997 | 100.89367 | 6787 ft | 272 kts | 17° |
| 2026-04-30 07:21 | 13.87794 | 100.89857 | 6619 ft | 263 kts | 16° |
| 2026-04-30 07:21 | 13.89543 | 100.90334 | 6379 ft | 257 kts | 16° |
| 2026-04-30 07:21 | 13.91259 | 100.90804 | 6082 ft | 254 kts | 17° |
| 2026-04-30 07:22 | 13.94716 | 100.90922 | 5390 ft | 256 kts | 336° |
| 2026-04-30 07:22 | 13.96092 | 100.89833 | 5080 ft | 254 kts | 307° |
| 2026-04-30 07:22 | 13.96914 | 100.88251 | 4978 ft | 250 kts | 291° |
| 2026-04-30 07:23 | 13.97410 | 100.86540 | 4898 ft | 251 kts | 275° |
| 2026-04-30 07:23 | 13.97454 | 100.84756 | 4759 ft | 247 kts | 265° |
| 2026-04-30 07:23 | 13.97365 | 100.82988 | 4634 ft | 247 kts | 264° |
| 2026-04-30 07:23 | 13.97188 | 100.81237 | 4468 ft | 244 kts | 250° |
| 2026-04-30 07:24 | 13.96193 | 100.79904 | 4328 ft | 234 kts | 208° |
| 2026-04-30 07:24 | 13.94682 | 100.79541 | 4139 ft | 221 kts | 171° |
| 2026-04-30 07:24 | 13.93187 | 100.79784 | 3967 ft | 215 kts | 174° |
| 2026-04-30 07:24 | 13.91728 | 100.79638 | 3809 ft | 216 kts | 194° |
| 2026-04-30 07:25 | 13.90312 | 100.79106 | 3766 ft | 215 kts | 200° |
| 2026-04-30 07:25 | 13.88953 | 100.78616 | 3795 ft | 199 kts | 195° |
| 2026-04-30 07:25 | 13.87632 | 100.78277 | 3671 ft | 191 kts | 189° |
| 2026-04-30 07:25 | 13.86335 | 100.78037 | 3420 ft | 188 kts | 188° |
| 2026-04-30 07:26 | 13.85073 | 100.77786 | 3125 ft | 187 kts | 190° |
| 2026-04-30 07:26 | 13.83809 | 100.77500 | 2859 ft | 183 kts | 191° |
| 2026-04-30 07:26 | 13.82579 | 100.77196 | 2565 ft | 178 kts | 192° |
| 2026-04-30 07:26 | 13.81410 | 100.76877 | 2291 ft | 170 kts | 193° |
| 2026-04-30 07:27 | 13.80278 | 100.76528 | 2103 ft | 168 kts | 195° |
| 2026-04-30 07:27 | 13.79185 | 100.76202 | 1901 ft | 161 kts | 193° |
| 2026-04-30 07:27 | 13.78120 | 100.75922 | 1657 ft | 155 kts | 191° |
| 2026-04-30 07:27 | 13.77074 | 100.75695 | 1405 ft | 152 kts | 188° |
| 2026-04-30 07:28 | 13.76050 | 100.75499 | 1175 ft | 146 kts | 190° |
| 2026-04-30 07:28 | 13.75088 | 100.75246 | 1003 ft | 141 kts | 197° |
| 2026-04-30 07:28 | 13.74164 | 100.74925 | 812 ft | 139 kts | 198° |
| 2026-04-30 07:28 | 13.73242 | 100.74665 | 649 ft | 139 kts | 192° |
| 2026-04-30 07:29 | 13.72297 | 100.74446 | 479 ft | 139 kts | 194° |
| 2026-04-30 07:29 | 13.71358 | 100.74206 | 317 ft | 140 kts | 194° |
| 2026-04-30 07:29 | 13.70420 | 100.73958 | 149 ft | 139 kts | 195° |
| 2026-04-30 07:29 | 13.69477 | 100.73708 | 26 ft | 136 kts | 195° |
| 2026-04-30 07:30 | 13.68496 | 100.73451 | 19 ft | 29 kts | 186° |
| 2026-04-30 07:30 | 13.68313 | 100.73472 | 21 ft | 18 kts | 165° |
| 2026-04-30 07:30 | 13.68229 | 100.73509 | 23 ft | 11 kts | 126° |
| 2026-04-30 07:31 | 13.68253 | 100.73571 | 23 ft | 11 kts | 28° |
| 2026-04-30 07:31 | 13.68331 | 100.73593 | 21 ft | 13 kts | 13° |
| 2026-04-30 07:31 | 13.68426 | 100.73619 | 22 ft | 15 kts | 14° |
| 2026-04-30 07:31 | 13.68541 | 100.73649 | 20 ft | 18 kts | 14° |
| 2026-04-30 07:32 | 13.68633 | 100.73673 | 23 ft | 11 kts | 14° |
| 2026-04-30 07:32 | 13.68664 | 100.73681 | 22 ft | 5 kts | 14° |
| 2026-04-30 07:32 | 13.68722 | 100.73697 | 24 ft | 11 kts | 14° |
| 2026-04-30 07:32 | 13.68788 | 100.73728 | 25 ft | 9 kts | 63° |
| 2026-04-30 07:33 | 13.68781 | 100.73797 | 21 ft | 12 kts | 103° |
| 2026-04-30 07:33 | 13.68759 | 100.73886 | 22 ft | 14 kts | 104° |
| 2026-04-30 07:33 | 13.68733 | 100.73989 | 23 ft | 14 kts | 105° |
| 2026-04-30 07:33 | 13.68708 | 100.74082 | 23 ft | 13 kts | 105° |
| 2026-04-30 07:34 | 13.68683 | 100.74186 | 22 ft | 16 kts | 103° |
| 2026-04-30 07:34 | 13.68655 | 100.74300 | 21 ft | 16 kts | 105° |
| 2026-04-30 07:34 | 13.68623 | 100.74424 | 20 ft | 19 kts | 105° |
| 2026-04-30 07:34 | 13.68591 | 100.74553 | 21 ft | 18 kts | 104° |
| 2026-04-30 07:35 | 13.68577 | 100.74643 | 23 ft | 11 kts | 75° |
| 2026-04-30 07:35 | 13.68644 | 100.74685 | 20 ft | 13 kts | 15° |
| 2026-04-30 07:35 | 13.68742 | 100.74711 | 23 ft | 16 kts | 14° |
| 2026-04-30 07:35 | 13.68855 | 100.74741 | 23 ft | 18 kts | 14° |
| 2026-04-30 07:36 | 13.68968 | 100.74771 | 22 ft | 14 kts | 14° |
| 2026-04-30 07:36 | 13.69043 | 100.74806 | 21 ft | 11 kts | 61° |
| 2026-04-30 07:36 | 13.69031 | 100.74889 | 23 ft | 13 kts | 104° |
| 2026-04-30 07:36 | 13.69006 | 100.74992 | 23 ft | 16 kts | 104° |
| 2026-04-30 07:37 | 13.69009 | 100.75055 | 24 ft | 5 kts | 31° |
| 2026-04-30 07:37 | 13.69048 | 100.75065 | 21 ft | 5 kts | 14° |
| 2026-04-30 07:37 | 13.69067 | 100.75070 | 23 ft | 0 kts | 14° |